createdAt,value
2019-04-04T00:02:58.682Z,15.43
2019-04-04T00:08:23.182Z,16.57
2019-04-04T00:13:47.691Z,15.57
2019-04-04T00:19:05.436Z,15.03
2019-04-04T00:24:10.519Z,16.23
2019-04-04T00:29:17.296Z,15.20
2019-04-04T00:34:22.513Z,16.77
2019-04-04T00:39:27.492Z,16.63
2019-04-04T00:44:32.747Z,16.63
2019-04-04T00:49:57.329Z,16.87
2019-04-04T00:55:02.455Z,15.60
2019-04-04T01:00:09.412Z,15.97
2019-04-04T01:05:14.696Z,16.90
2019-04-04T01:10:19.860Z,17.10
2019-04-04T01:15:44.069Z,16.63
2019-04-04T01:20:50.670Z,16.07
2019-04-04T01:25:56.387Z,16.80
2019-04-04T01:31:21.246Z,16.70
2019-04-04T01:36:38.481Z,17.33
2019-04-04T01:41:43.821Z,17.23
2019-04-04T01:47:08.304Z,16.43
2019-04-04T01:52:13.741Z,18.67
2019-04-04T01:57:19.054Z,17.57
2019-04-04T02:02:24.174Z,17.43
2019-04-04T02:07:29.789Z,17.90
2019-04-04T02:12:38.573Z,18.43
2019-04-04T02:17:42.400Z,18.13
2019-04-04T02:22:47.593Z,26.27
2019-04-04T02:28:12.230Z,18.43
2019-04-04T02:33:17.249Z,17.37
2019-04-04T02:38:27.159Z,18.40
2019-04-04T02:43:29.098Z,17.40
2019-04-04T02:48:34.272Z,17.87
2019-04-04T02:53:39.406Z,17.43
2019-04-04T02:58:46.480Z,18.37
2019-04-04T03:03:51.058Z,16.47
2019-04-04T03:09:15.541Z,18.37
2019-04-04T03:14:40.143Z,17.87
2019-04-04T03:19:45.466Z,19.23
2019-04-04T03:25:14.330Z,17.87
2019-04-04T03:30:17.432Z,16.97
2019-04-04T03:35:28.045Z,18.33
2019-04-04T03:40:49.105Z,16.80
2019-04-04T03:45:54.289Z,15.20
2019-04-04T03:51:18.602Z,17.47
2019-04-04T03:56:39.161Z,14.40
2019-04-04T04:01:45.415Z,17.80
2019-04-04T04:06:49.298Z,14.30
2019-04-04T04:11:54.523Z,17.30
2019-04-04T04:16:59.622Z,17.27
2019-04-04T04:22:04.713Z,17.93
2019-04-04T04:27:14.481Z,15.17
2019-04-04T04:32:37.353Z,19.07
2019-04-04T04:37:42.685Z,18.27
2019-04-04T04:42:47.768Z,19.10
2019-04-04T04:48:12.224Z,19.30
2019-04-04T04:53:18.754Z,22.07
2019-04-04T04:58:24.110Z,19.87
2019-04-04T05:03:29.102Z,17.23
2019-04-04T05:08:34.318Z,14.60
2019-04-04T05:13:39.315Z,16.97
2019-04-04T05:18:47.493Z,17.33
2019-04-04T05:23:51.077Z,14.80
2019-04-04T05:28:57.179Z,17.10
2019-04-04T05:34:02.267Z,17.50
2019-04-04T05:39:08.914Z,17.57
2019-04-04T05:44:13.923Z,15.27
2019-04-04T05:49:38.871Z,17.00
2019-04-04T05:54:44.459Z,16.97
2019-04-04T05:59:49.361Z,18.93
2019-04-04T06:04:55.364Z,19.00
2019-04-04T06:10:00.835Z,18.30
2019-04-04T06:15:07.519Z,18.80
2019-04-04T06:20:13.040Z,18.43
2019-04-04T06:25:19.380Z,19.00
2019-04-04T06:30:43.917Z,19.17
2019-04-04T06:35:48.907Z,18.03
2019-04-04T06:40:53.714Z,18.77
2019-04-04T06:45:58.973Z,18.37
2019-04-04T06:51:23.489Z,17.50
2019-04-04T06:56:31.813Z,17.53
2019-04-04T07:01:54.524Z,19.30
2019-04-04T07:06:59.350Z,19.00
2019-04-04T07:12:06.495Z,18.10
2019-04-04T07:17:30.829Z,19.10
2019-04-04T07:22:55.927Z,19.20
2019-04-04T07:28:01.601Z,19.53
2019-04-04T07:33:06.934Z,19.00
2019-04-04T07:38:12.063Z,19.90
2019-04-04T07:43:19.390Z,19.43
2019-04-04T07:48:24.140Z,18.57
2019-04-04T07:53:29.463Z,16.33
2019-04-04T07:58:34.760Z,19.10
2019-04-04T08:03:40.139Z,18.17
2019-04-04T08:08:45.095Z,17.03
2019-04-04T08:13:50.539Z,17.33
2019-04-04T08:18:55.763Z,19.03
2019-04-04T08:24:00.939Z,17.07
2019-04-04T08:29:06.280Z,16.60
2019-04-04T08:34:11.563Z,16.10
2019-04-04T08:39:17.237Z,16.43
2019-04-04T08:44:22.366Z,15.80
2019-04-04T08:49:27.502Z,17.97
2019-04-04T08:54:51.903Z,17.30
2019-04-04T08:59:57.050Z,17.53
2019-04-04T09:05:11.751Z,17.93
2019-04-04T09:10:09.059Z,17.60
2019-04-04T09:15:14.391Z,17.33
2019-04-04T09:20:19.336Z,15.77
2019-04-04T09:25:25.112Z,16.93
2019-04-04T09:30:30.070Z,18.03
2019-04-04T09:35:35.302Z,16.77
2019-04-04T09:40:40.220Z,17.30
2019-04-04T09:45:45.679Z,17.87
2019-04-04T09:50:50.959Z,18.63
2019-04-04T09:55:55.913Z,18.03
2019-04-04T10:01:00.968Z,16.97
2019-04-04T10:06:06.130Z,16.90
2019-04-04T10:11:11.076Z,17.77
2019-04-04T10:16:15.918Z,17.70
2019-04-04T10:21:21.060Z,16.90
2019-04-04T10:26:26.022Z,18.87
2019-04-04T10:31:30.872Z,17.67
2019-04-04T10:36:35.838Z,17.60
2019-04-04T10:41:41.424Z,18.23
2019-04-04T10:46:46.222Z,18.00
2019-04-04T10:51:51.409Z,17.20
2019-04-04T10:56:56.474Z,19.73
2019-04-04T11:02:01.379Z,18.43
2019-04-04T11:07:06.331Z,18.03
2019-04-04T11:12:11.397Z,18.17
2019-04-04T11:17:17.475Z,17.77
2019-04-04T11:22:22.546Z,18.67
2019-04-04T11:27:27.669Z,18.43
2019-04-04T11:32:32.637Z,17.93
2019-04-04T11:37:37.738Z,18.43
2019-04-04T11:42:42.833Z,18.30
2019-04-04T11:47:47.778Z,18.17
2019-04-04T11:52:52.828Z,19.43
2019-04-04T11:57:58.030Z,18.93
2019-04-04T12:03:03.001Z,20.03
2019-04-04T12:08:08.179Z,19.33
2019-04-04T12:13:13.379Z,18.70
2019-04-04T12:18:18.458Z,18.87
2019-04-04T12:23:23.660Z,18.23
2019-04-04T12:28:28.922Z,16.53
2019-04-04T12:33:34.092Z,18.00
2019-04-04T12:38:39.395Z,17.03
2019-04-04T12:43:44.730Z,18.33
2019-04-04T12:48:49.824Z,18.10
2019-04-04T12:53:54.766Z,17.07
2019-04-04T12:58:59.996Z,18.77
2019-04-04T13:04:05.286Z,18.67
2019-04-04T13:09:10.255Z,17.80
2019-04-04T13:14:15.179Z,17.40
2019-04-04T13:19:20.079Z,18.27
2019-04-04T13:24:25.328Z,18.67
2019-04-04T13:29:30.528Z,19.33
2019-04-04T13:34:35.452Z,19.83
2019-04-04T13:39:40.675Z,17.03
2019-04-04T13:44:45.588Z,19.27
2019-04-04T13:49:50.517Z,19.33
2019-04-04T13:54:55.921Z,18.13
2019-04-04T14:00:01.413Z,18.63
2019-04-04T14:05:09.986Z,19.37
2019-04-04T14:10:17.508Z,18.10
2019-04-04T14:15:21.987Z,17.87
2019-04-04T14:20:26.934Z,18.43
2019-04-04T14:25:32.082Z,17.87
2019-04-04T14:30:37.219Z,20.33
2019-04-04T14:35:43.034Z,17.70
2019-04-04T14:40:48.178Z,16.57
2019-04-04T14:45:53.425Z,18.43
2019-04-04T14:50:58.626Z,16.43
2019-04-04T14:56:03.878Z,17.27
2019-04-04T15:01:09.177Z,17.80
2019-04-04T15:06:14.299Z,18.27
2019-04-04T15:11:24.481Z,17.87
2019-04-04T15:16:26.480Z,18.77
2019-04-04T15:21:31.788Z,18.87
2019-04-04T15:26:36.710Z,19.43
2019-04-04T15:31:41.710Z,19.50
2019-04-04T15:36:47.114Z,19.73
2019-04-04T15:41:52.391Z,20.73
2019-04-04T15:46:57.633Z,18.00
2019-04-04T15:52:02.575Z,19.73
2019-04-04T15:57:07.781Z,20.73
2019-04-04T16:02:12.691Z,21.53
2019-04-04T16:07:17.879Z,21.93
2019-04-04T16:12:23.232Z,21.97
2019-04-04T16:17:28.341Z,22.07
2019-04-04T16:22:33.323Z,22.50
2019-04-04T16:27:38.272Z,23.37
2019-04-04T16:32:43.440Z,25.00
2019-04-04T16:37:48.801Z,22.13
2019-04-04T16:42:53.882Z,21.10
2019-04-04T16:47:59.121Z,21.77
2019-04-04T16:53:04.692Z,22.70
2019-04-04T16:58:09.690Z,21.70
2019-04-04T17:03:15.018Z,21.47
2019-04-04T17:08:20.272Z,22.73
2019-04-04T17:13:25.999Z,21.07
2019-04-04T17:18:31.046Z,20.90
2019-04-04T17:23:36.282Z,22.70
2019-04-04T17:28:41.520Z,23.60
2019-04-04T17:33:47.104Z,23.20
2019-04-04T17:38:54.934Z,24.40
2019-04-04T17:43:59.289Z,22.30
2019-04-04T17:49:41.045Z,21.70
2019-04-04T17:54:46.677Z,20.67
2019-04-04T17:59:57.899Z,23.10
2019-04-04T18:11:11.894Z,23.03
2019-04-04T18:16:18.375Z,21.83
2019-04-04T18:21:24.013Z,22.73
2019-04-04T18:26:29.572Z,24.37
2019-04-04T18:31:35.491Z,20.60
2019-04-04T18:36:41.451Z,23.03
2019-04-04T18:41:47.528Z,20.07
2019-04-04T18:46:52.563Z,19.47
2019-04-04T18:51:57.856Z,19.70
2019-04-04T18:57:02.865Z,20.13
2019-04-04T19:02:19.734Z,20.23
2019-04-04T19:07:25.494Z,19.60
2019-04-04T19:12:30.987Z,17.77
2019-04-04T19:17:36.205Z,18.37
2019-04-04T19:22:41.568Z,18.93
2019-04-04T19:27:46.947Z,20.07
2019-04-04T19:32:52.286Z,19.40
2019-04-04T19:38:00.359Z,18.33
2019-04-04T19:43:17.174Z,19.20
2019-04-04T19:48:11.533Z,20.27
2019-04-04T19:53:16.933Z,18.57
2019-04-04T19:58:22.087Z,18.23
2019-04-04T20:03:27.516Z,19.57
2019-04-04T20:08:32.717Z,19.40
2019-04-04T20:13:38.248Z,19.30
2019-04-04T20:18:43.887Z,18.37
2019-04-04T20:23:49.365Z,19.57
2019-04-04T20:28:54.727Z,20.57
2019-04-04T20:34:01.961Z,19.17
2019-04-04T20:39:08.564Z,22.80
2019-04-04T20:44:13.766Z,20.13
2019-04-04T20:49:18.988Z,19.00
2019-04-04T20:54:24.293Z,18.93
2019-04-04T20:59:29.881Z,18.33
2019-04-04T21:04:35.305Z,18.97
2019-04-04T21:09:40.835Z,18.83
2019-04-04T21:14:46.355Z,26.30
2019-04-04T21:19:51.737Z,20.97
2019-04-04T21:24:56.933Z,20.83
2019-04-04T21:30:02.205Z,23.17
2019-04-04T21:35:07.564Z,20.00
2019-04-04T21:40:13.071Z,20.67
2019-04-04T21:45:18.046Z,21.20
2019-04-04T21:50:23.284Z,25.00
2019-04-04T21:55:28.822Z,21.10
2019-04-04T22:00:35.837Z,24.13
2019-04-04T22:05:41.540Z,22.07
2019-04-04T22:10:47.132Z,23.63
2019-04-04T22:15:52.491Z,24.97
2019-04-04T22:20:57.688Z,24.03
2019-04-04T22:26:03.115Z,23.40
2019-04-04T22:31:08.660Z,22.73
2019-04-04T22:36:14.071Z,23.73
2019-04-04T22:41:19.154Z,22.40
2019-04-04T22:46:27.560Z,22.90
2019-04-04T22:51:32.817Z,22.30
2019-04-04T22:56:38.114Z,22.17
2019-04-04T23:01:43.536Z,23.17
2019-04-04T23:06:48.511Z,25.30
2019-04-04T23:11:53.876Z,21.67
2019-04-04T23:16:59.262Z,24.37
2019-04-04T23:22:04.632Z,24.30
2019-04-04T23:27:09.983Z,23.17
2019-04-04T23:32:15.328Z,24.23
2019-04-04T23:37:26.370Z,24.40
2019-04-04T23:42:31.558Z,22.83
2019-04-04T23:47:42.863Z,22.53
2019-04-04T23:52:43.731Z,23.90
2019-04-04T23:58:08.149Z,22.10
